createdAt,value
2018-10-11T16:28:08.813Z,49.34
2018-10-11T16:29:08.757Z,49.53
2018-10-11T16:30:08.769Z,49.63
2018-10-11T16:31:08.844Z,49.73
2018-10-11T16:32:08.790Z,49.43
2018-10-11T16:33:08.820Z,49.73
2018-10-11T16:34:08.791Z,50.11
2018-10-11T16:35:08.870Z,50.01
2018-10-11T16:36:08.828Z,50.49
2018-10-11T16:37:08.863Z,50.11
2018-10-11T16:38:08.840Z,50.01
2018-10-11T16:39:08.901Z,50.01
2018-10-11T16:40:08.849Z,50.40
2018-10-11T16:41:08.850Z,50.18
2018-10-11T16:42:08.921Z,49.99
2018-10-11T16:43:08.896Z,50.27
2018-10-11T16:44:08.912Z,50.01
2018-10-11T16:45:08.919Z,49.99
2018-10-11T16:46:08.900Z,50.21
2018-10-11T16:47:08.932Z,50.49
2018-10-11T16:48:08.958Z,50.09
2018-10-11T16:49:08.935Z,49.99
2018-10-11T16:50:09.016Z,50.27
2018-10-11T16:51:09.000Z,49.99
2018-10-11T16:52:08.981Z,50.09
2018-10-11T16:53:09.006Z,50.27
2018-10-11T16:54:08.983Z,50.18
2018-10-11T16:55:09.001Z,50.09
2018-10-11T16:56:09.013Z,50.37
2018-10-11T16:57:09.025Z,50.47
2018-10-11T16:58:09.078Z,50.85
2018-10-11T16:59:09.050Z,50.66
2018-10-11T17:00:09.082Z,50.47
2018-10-11T17:01:09.064Z,50.85
2018-10-11T17:02:09.083Z,50.95
2018-10-11T17:03:09.141Z,50.85
2018-10-11T17:04:09.233Z,50.47
2018-10-11T17:05:09.122Z,50.66
2018-10-11T17:06:09.146Z,50.95
2018-10-11T17:07:09.179Z,51.24
2018-10-11T17:08:09.156Z,51.43
2018-10-11T17:09:09.220Z,51.34
2018-10-11T17:10:09.206Z,51.72
2018-10-11T17:11:09.269Z,51.24
2018-10-11T17:12:09.257Z,51.62
2018-10-11T17:13:09.233Z,51.53
2018-10-11T17:14:09.255Z,52.01
2018-10-11T17:15:09.278Z,51.82
2018-10-11T17:16:09.250Z,52.30
2018-10-11T17:17:09.349Z,52.40
2018-10-11T17:18:09.256Z,52.78
2018-10-11T17:19:09.262Z,52.49
2018-10-11T17:20:09.351Z,52.87
2018-10-11T17:21:09.409Z,52.87
2018-10-11T17:22:09.394Z,53.07
2018-10-11T17:23:09.330Z,52.59
2018-10-11T17:24:09.327Z,52.87
2018-10-11T17:25:09.366Z,52.78
2018-10-11T17:26:09.394Z,53.36
2018-10-11T17:27:09.353Z,53.17
2018-10-11T17:28:09.410Z,53.65
2018-10-11T17:29:09.388Z,52.97
2018-10-11T17:30:09.378Z,53.74
2018-10-11T17:31:09.414Z,53.43
2018-10-11T17:32:09.409Z,53.91
2018-10-11T17:33:09.501Z,54.30
2018-10-11T17:34:09.437Z,54.20
2018-10-11T17:35:09.526Z,54.78
2018-10-11T17:36:10.195Z,54.49
2018-10-11T17:37:10.673Z,54.87
2018-10-11T17:38:10.451Z,55.16
2018-10-11T17:39:09.507Z,54.78
2018-10-11T17:40:09.524Z,54.97
2018-10-11T17:41:09.621Z,55.26
2018-10-11T17:42:09.534Z,55.16
2018-10-11T17:43:09.513Z,55.65
2018-10-11T17:44:09.527Z,55.93
2018-10-11T17:45:09.828Z,55.65
2018-10-11T17:46:09.566Z,56.41
2018-10-11T17:47:09.594Z,56.12
2018-10-11T17:48:09.576Z,56.41
2018-10-11T17:49:09.586Z,56.03
2018-10-11T17:50:09.701Z,56.12
2018-10-11T17:51:09.662Z,56.41
2018-10-11T17:52:09.619Z,55.93
2018-10-11T17:53:09.626Z,56.51
2018-10-11T17:54:09.639Z,56.99
2018-10-11T17:55:09.697Z,56.80
2018-10-11T17:56:09.653Z,56.41
2018-10-11T17:57:09.726Z,56.41
2018-10-11T17:58:09.723Z,56.60
2018-10-11T17:59:09.715Z,56.60
2018-10-11T18:00:09.763Z,56.70
2018-10-11T18:01:09.717Z,56.99
2018-10-11T18:02:09.772Z,56.67
2018-10-11T18:03:09.778Z,56.77
2018-10-11T18:04:09.777Z,56.96
2018-10-11T18:05:09.814Z,56.67
2018-10-11T18:06:09.771Z,56.58
2018-10-11T18:07:09.835Z,56.87
2018-10-11T18:08:09.790Z,56.96
2018-10-11T18:09:09.816Z,57.06
2018-10-11T18:10:10.058Z,57.25
2018-10-11T18:11:09.820Z,57.06
2018-10-11T18:12:09.904Z,57.45
2018-10-11T18:13:09.874Z,57.25
2018-10-11T18:14:09.885Z,57.83
2018-10-11T18:15:09.886Z,57.45
2018-10-11T18:16:09.999Z,57.73
2018-10-11T18:17:09.894Z,57.83
2018-10-11T18:18:09.930Z,57.73
2018-10-11T18:19:10.011Z,58.12
2018-10-11T18:20:09.966Z,58.12
2018-10-11T18:21:10.071Z,58.70
2018-10-11T18:22:09.993Z,58.02
2018-10-11T18:23:09.986Z,58.12
2018-10-11T18:24:10.008Z,58.50
2018-10-11T18:25:09.976Z,58.31
2018-10-11T18:26:09.983Z,58.50
2018-10-11T18:27:10.005Z,58.70
2018-10-11T18:28:10.020Z,58.70
2018-10-11T18:29:10.139Z,58.40
2018-10-11T18:30:10.015Z,58.28
2018-10-11T18:31:10.041Z,58.40
2018-10-11T18:32:10.041Z,58.31
2018-10-11T18:33:10.051Z,58.60
2018-10-11T18:34:10.109Z,58.67
2018-10-11T18:35:10.076Z,58.50
2018-10-11T18:36:10.103Z,58.60
2018-10-11T18:37:10.106Z,58.57
2018-10-11T18:38:10.124Z,58.57
2018-10-11T18:39:10.229Z,58.37
2018-10-11T18:40:10.136Z,58.57
2018-10-11T18:41:10.155Z,58.67
2018-10-11T18:42:10.159Z,58.95
2018-10-11T18:43:10.197Z,58.95
2018-10-11T18:44:10.173Z,58.95
2018-10-11T18:45:10.293Z,59.05
2018-10-11T18:46:10.380Z,59.63
2018-10-11T18:47:10.198Z,59.53
2018-10-11T18:48:10.232Z,59.82
2018-10-11T18:49:10.321Z,59.44
2018-10-11T18:50:10.319Z,59.44
2018-10-11T18:51:10.261Z,59.82
2018-10-11T18:52:10.316Z,59.44
2018-10-11T18:53:10.300Z,59.63
2018-10-11T18:54:10.280Z,59.63
2018-10-11T18:55:10.281Z,59.82
2018-10-11T18:56:10.341Z,59.53
2018-10-11T18:57:10.346Z,59.82
2018-10-11T18:58:10.318Z,59.34
2018-10-11T18:59:10.372Z,59.63
2018-10-11T19:00:10.342Z,59.82
2018-10-11T19:01:10.352Z,58.67
2018-10-11T19:02:10.378Z,58.37
2018-10-11T19:03:10.420Z,59.15
2018-10-11T19:04:10.392Z,59.05
2018-10-11T19:05:10.501Z,59.44
2018-10-11T19:06:10.472Z,59.05
2018-10-11T19:07:10.451Z,58.95
2018-10-11T19:08:10.474Z,58.86
2018-10-11T19:09:10.639Z,58.92
2018-10-11T19:10:10.473Z,58.95
2018-10-11T19:11:10.454Z,58.76
2018-10-11T19:12:10.480Z,59.15
2018-10-11T19:13:10.538Z,59.15
2018-10-11T19:14:10.609Z,59.60
2018-10-11T19:15:10.526Z,59.60
2018-10-11T19:16:10.513Z,59.41
2018-10-11T19:17:10.522Z,59.60
2018-10-11T19:18:10.551Z,59.60
2018-10-11T19:19:10.609Z,59.69
2018-10-11T19:20:10.553Z,59.69
2018-10-11T19:21:10.762Z,59.99
2018-10-11T19:22:10.591Z,60.17
2018-10-11T19:23:10.583Z,59.89
2018-10-11T19:24:10.651Z,60.17
2018-10-11T19:25:10.662Z,59.79
